createdAt,value
2022-11-15T00:00:47.588Z,19.3
2022-11-15T00:02:03.890Z,18.9
2022-11-15T00:03:20.175Z,19.6
2022-11-15T00:04:35.490Z,19.1
2022-11-15T00:05:51.790Z,19.1
2022-11-15T00:07:08.082Z,19.9
2022-11-15T00:08:24.385Z,20.1
2022-11-15T00:09:40.660Z,19.3
2022-11-15T00:10:56.957Z,19.9
2022-11-15T00:12:12.274Z,19.4
2022-11-15T00:13:28.566Z,20
2022-11-15T00:14:44.863Z,19.6
2022-11-15T00:16:01.161Z,19.4
2022-11-15T00:18:33.758Z,18.7
2022-11-15T00:19:50.049Z,18.4
2022-11-15T00:21:06.344Z,18.9
2022-11-15T00:22:22.644Z,18.4
2022-11-15T00:23:38.929Z,18.7
2022-11-15T00:24:55.235Z,19
2022-11-15T00:26:11.528Z,17.9
2022-11-15T00:27:27.822Z,17.7
2022-11-15T00:28:43.130Z,17.8
2022-11-15T00:29:59.422Z,18.8
2022-11-15T00:31:15.722Z,18.5
2022-11-15T00:32:32.018Z,18.2
2022-11-15T00:33:48.305Z,18
2022-11-15T00:35:04.605Z,18.2
2022-11-15T00:36:20.900Z,18.5
2022-11-15T00:37:37.188Z,18.4
2022-11-15T00:38:53.482Z,17.1
2022-11-15T00:40:09.781Z,17.5
2022-11-15T00:41:26.071Z,18.5
2022-11-15T00:42:42.369Z,18.9
2022-11-15T00:43:58.665Z,17.4
2022-11-15T00:45:13.968Z,17.7
2022-11-15T00:46:30.272Z,17.6
2022-11-15T00:47:46.563Z,17.8
2022-11-15T00:49:02.849Z,18.3
2022-11-15T00:50:19.152Z,17.5
2022-11-15T00:51:35.439Z,17.2
2022-11-15T00:52:51.732Z,17.4
2022-11-15T00:54:08.027Z,17.3
2022-11-15T00:55:24.338Z,17.3
2022-11-15T00:56:40.629Z,17.2
2022-11-15T00:57:56.918Z,17
2022-11-15T00:59:13.210Z,17.1
2022-11-15T01:00:29.499Z,17
2022-11-15T01:01:44.827Z,16.7
2022-11-15T01:03:01.105Z,17.2
2022-11-15T01:04:17.411Z,16.8
2022-11-15T01:06:50.007Z,16.3
2022-11-15T01:08:06.290Z,16.6
2022-11-15T01:09:22.586Z,17
2022-11-15T01:10:38.876Z,16.6
2022-11-15T01:11:55.181Z,16.6
2022-11-15T01:13:11.470Z,16.6
2022-11-15T01:14:27.770Z,16.5
2022-11-15T01:15:44.056Z,16.9
2022-11-15T01:17:00.343Z,15.9
2022-11-15T01:19:31.950Z,16.2
2022-11-15T01:20:48.247Z,16
2022-11-15T01:22:04.539Z,15.7
2022-11-15T01:23:20.854Z,15.4
2022-11-15T01:24:37.142Z,15.6
2022-11-15T01:25:53.428Z,14.5
2022-11-15T01:27:09.729Z,15.2
2022-11-15T01:28:26.023Z,14.7
2022-11-15T01:29:42.321Z,14.8
2022-11-15T01:30:58.609Z,14.4
2022-11-15T01:32:14.904Z,14.6
2022-11-15T01:34:47.495Z,14.5
2022-11-15T01:36:02.813Z,14.2
2022-11-15T01:37:19.105Z,13.4
2022-11-15T01:38:35.387Z,13.4
2022-11-15T01:39:51.677Z,12.9
2022-11-15T01:41:07.976Z,13
2022-11-15T01:42:24.279Z,12.9
2022-11-15T01:43:40.575Z,12.4
2022-11-15T01:44:56.874Z,11.8
2022-11-15T01:46:13.161Z,11.9
2022-11-15T01:47:29.448Z,11.7
2022-11-15T01:48:45.741Z,10.9
2022-11-15T01:50:02.039Z,11
2022-11-15T01:51:18.347Z,10.5
2022-11-15T01:52:33.654Z,10.5
2022-11-15T01:53:49.952Z,10
2022-11-15T01:55:06.232Z,10.6
2022-11-15T01:56:22.525Z,10.9
2022-11-15T01:57:38.824Z,10.1
2022-11-15T01:58:55.115Z,10.1
2022-11-15T02:00:11.420Z,9.6
2022-11-15T02:01:27.699Z,9.9
2022-11-15T02:02:43.995Z,10.1
2022-11-15T02:04:00.306Z,9.9
2022-11-15T02:05:16.588Z,9.8
2022-11-15T02:06:32.883Z,9.5
2022-11-15T02:07:49.187Z,9.4
2022-11-15T02:09:04.498Z,9.6
2022-11-15T02:10:20.790Z,9.7
2022-11-15T02:11:37.088Z,9.4
2022-11-15T02:12:53.386Z,10.2
2022-11-15T02:14:09.667Z,9.9
2022-11-15T02:15:25.961Z,9.8
2022-11-15T02:16:42.262Z,9.6
2022-11-15T02:17:58.560Z,9.9
2022-11-15T02:19:14.838Z,9.9
2022-11-15T02:20:31.146Z,9.9
2022-11-15T02:21:47.447Z,10.1
2022-11-15T02:23:03.737Z,9.6
2022-11-15T02:24:20.029Z,10.1
2022-11-15T02:25:35.338Z,10
2022-11-15T02:26:51.628Z,10.5
2022-11-15T02:28:07.930Z,10.3
2022-11-15T02:29:24.230Z,9.9
2022-11-15T02:30:40.516Z,10.3
2022-11-15T02:31:56.812Z,9.9
2022-11-15T02:33:13.095Z,9.7
2022-11-15T02:34:29.392Z,9.9
2022-11-15T02:35:45.703Z,10.1
2022-11-15T02:37:01.981Z,10
2022-11-15T02:38:18.288Z,9.9
2022-11-15T02:39:34.568Z,9.4
2022-11-15T02:40:50.875Z,9.8
2022-11-15T02:42:06.194Z,9.4
2022-11-15T02:43:22.477Z,9.4
2022-11-15T02:44:38.768Z,9.7
2022-11-15T02:45:55.065Z,9.4
2022-11-15T02:47:11.369Z,9.6
2022-11-15T02:48:27.658Z,9.4
2022-11-15T02:49:43.944Z,9.5
2022-11-15T02:51:00.254Z,9.6
2022-11-15T02:52:16.546Z,9.3
2022-11-15T02:53:32.826Z,9.7
2022-11-15T02:54:49.138Z,9.3
2022-11-15T02:56:05.419Z,9.5
2022-11-15T02:57:21.708Z,9.6
2022-11-15T02:58:37.034Z,9.7
2022-11-15T02:59:53.314Z,9.4
2022-11-15T03:01:09.616Z,9.3
2022-11-15T03:02:25.916Z,9.4
2022-11-15T03:03:42.210Z,9.1
2022-11-15T03:04:58.503Z,9.1
2022-11-15T03:06:14.785Z,8.7
2022-11-15T03:07:31.088Z,9.5
2022-11-15T03:08:47.382Z,9.2
2022-11-15T03:10:03.668Z,9.6
2022-11-15T03:11:19.965Z,9.3
2022-11-15T03:12:36.270Z,8.9
2022-11-15T03:13:52.554Z,9.3
2022-11-15T03:15:07.866Z,9.4
2022-11-15T03:16:24.176Z,9.2
2022-11-15T03:17:40.458Z,9.3
2022-11-15T03:18:56.748Z,9.2
2022-11-15T03:20:13.055Z,9.1
2022-11-15T03:21:29.337Z,9.1
2022-11-15T03:22:45.647Z,9.1
2022-11-15T03:24:01.939Z,8.8
2022-11-15T03:25:18.230Z,8.9
2022-11-15T03:26:34.528Z,9
2022-11-15T03:29:07.111Z,8.9
2022-11-15T03:30:23.417Z,8.7
2022-11-15T03:31:38.725Z,9
2022-11-15T03:32:55.011Z,9.1
2022-11-15T03:34:11.318Z,8.9
2022-11-15T03:36:43.900Z,9
2022-11-15T03:38:00.194Z,8.8
2022-11-15T03:39:16.487Z,9.2
2022-11-15T03:40:32.785Z,9.1
2022-11-15T03:41:49.079Z,9
2022-11-15T03:44:21.653Z,9.6
2022-11-15T03:45:36.976Z,9.3
2022-11-15T03:46:52.295Z,9.4
2022-11-15T03:48:08.591Z,9.3
2022-11-15T03:49:24.870Z,9.2
2022-11-15T03:50:41.167Z,9.1
2022-11-15T03:51:57.473Z,9
2022-11-15T03:53:13.768Z,9.7
2022-11-15T03:54:30.049Z,9.6
2022-11-15T03:55:46.342Z,9
2022-11-15T03:57:02.636Z,9
2022-11-15T03:58:18.945Z,9.1
2022-11-15T03:59:34.255Z,9.1
2022-11-15T04:00:49.562Z,9.4
2022-11-15T04:02:05.857Z,9.3
2022-11-15T04:03:22.147Z,9.6
2022-11-15T04:04:38.442Z,9
2022-11-15T04:05:54.744Z,9.1
2022-11-15T04:07:11.037Z,9.6
2022-11-15T04:08:27.330Z,9.2
2022-11-15T04:09:43.630Z,9.6
2022-11-15T04:10:59.914Z,8.9
2022-11-15T04:12:16.222Z,8.8
2022-11-15T04:13:32.514Z,8.7
2022-11-15T04:14:48.798Z,8.7
2022-11-15T04:16:05.103Z,9.1
2022-11-15T04:17:20.407Z,8.8
2022-11-15T04:18:36.704Z,8.9
2022-11-15T04:19:52.993Z,8.8
2022-11-15T04:21:09.302Z,9.2
2022-11-15T04:22:25.595Z,9.5
2022-11-15T04:24:58.186Z,8.9
2022-11-15T04:26:14.483Z,8.8
2022-11-15T04:27:29.791Z,8.9
2022-11-15T04:28:46.075Z,8.7
2022-11-15T04:30:02.382Z,8.8
2022-11-15T04:31:18.668Z,8.7
2022-11-15T04:32:34.962Z,8.6
2022-11-15T04:33:51.258Z,9.1
2022-11-15T04:35:07.567Z,9
2022-11-15T04:36:23.857Z,8.9
2022-11-15T04:37:40.137Z,9.3
2022-11-15T04:38:56.445Z,8.9
2022-11-15T04:40:12.724Z,9
2022-11-15T04:41:29.024Z,8.5
2022-11-15T04:42:45.323Z,8.8
2022-11-15T04:44:00.640Z,8.5
2022-11-15T04:45:16.940Z,8.7
2022-11-15T04:46:33.232Z,9.1
2022-11-15T04:47:49.523Z,8.4
2022-11-15T04:49:05.804Z,8.6
2022-11-15T04:50:22.102Z,8.7
2022-11-15T04:51:38.409Z,8.8
2022-11-15T04:52:54.702Z,8.3
2022-11-15T04:54:10.996Z,8.4
2022-11-15T04:55:27.279Z,8.3
2022-11-15T04:56:43.000Z,9
2022-11-15T04:57:59.864Z,9.4
2022-11-15T04:59:16.158Z,8.7
2022-11-15T05:00:31.488Z,8.8
2022-11-15T05:01:47.776Z,8.8
2022-11-15T05:03:04.070Z,8.9
2022-11-15T05:04:20.360Z,9.1
2022-11-15T05:05:36.663Z,9.3
2022-11-15T05:08:09.253Z,9
2022-11-15T05:09:25.535Z,8
2022-11-15T05:10:41.844Z,8.6
2022-11-15T05:11:58.138Z,8.7
2022-11-15T05:13:14.435Z,9.4
2022-11-15T05:14:30.710Z,9.9
2022-11-15T05:15:47.017Z,9.7
2022-11-15T05:17:02.320Z,9.3
2022-11-15T05:18:18.625Z,8.7
2022-11-15T05:19:34.903Z,8.7
2022-11-15T05:20:51.219Z,8.7
2022-11-15T05:22:07.492Z,9.1
2022-11-15T05:23:23.792Z,9.3
2022-11-15T05:24:40.095Z,8.7
2022-11-15T05:25:56.396Z,8.9
2022-11-15T05:27:12.690Z,9.1
2022-11-15T05:28:28.973Z,9.3
2022-11-15T05:31:01.556Z,8.7
2022-11-15T05:32:17.857Z,8.9
2022-11-15T05:33:33.170Z,8.7
2022-11-15T05:34:49.473Z,9.2
2022-11-15T05:36:05.766Z,9.2
2022-11-15T05:37:22.054Z,8.8
2022-11-15T05:38:38.346Z,9.3
2022-11-15T05:39:54.653Z,9.4
2022-11-15T05:41:10.941Z,9.9
2022-11-15T05:42:27.244Z,9.4
2022-11-15T05:43:43.529Z,9.6
2022-11-15T05:44:59.770Z,9.1
2022-11-15T05:46:16.071Z,9.5
2022-11-15T05:47:32.368Z,9.5
2022-11-15T05:48:48.605Z,9.1
2022-11-15T05:50:03.861Z,9.5
2022-11-15T05:51:20.169Z,9.7
2022-11-15T05:52:36.461Z,9.8
2022-11-15T05:53:52.711Z,9.6
2022-11-15T05:55:08.948Z,9.3
2022-11-15T05:56:25.240Z,8.9
2022-11-15T05:57:41.493Z,9.6
2022-11-15T05:58:57.749Z,9.7
2022-11-15T06:00:13.984Z,9.7
2022-11-15T06:01:30.213Z,9.6
2022-11-15T06:02:46.468Z,9.5
2022-11-15T06:04:02.702Z,9.8
2022-11-15T06:05:18.944Z,9.5
2022-11-15T06:06:34.201Z,9.7
2022-11-15T06:07:50.444Z,9.4
2022-11-15T06:09:06.677Z,9.7
2022-11-15T06:10:22.916Z,9.5
2022-11-15T06:12:55.401Z,9.6
2022-11-15T06:14:11.632Z,9.8
2022-11-15T06:16:44.129Z,9.3
2022-11-15T06:18:00.367Z,9.1
2022-11-15T06:19:16.609Z,9.5
2022-11-15T06:20:32.846Z,9.6
2022-11-15T06:21:49.080Z,9.6
2022-11-15T06:23:04.344Z,9.5
2022-11-15T06:24:20.585Z,9
2022-11-15T06:25:36.827Z,9.4
2022-11-15T06:26:53.068Z,9.2
2022-11-15T06:28:09.314Z,9.2
2022-11-15T06:29:25.547Z,9.4
2022-11-15T06:30:41.773Z,9.7
2022-11-15T06:31:58.027Z,9.2
2022-11-15T06:33:14.271Z,9
2022-11-15T06:34:30.511Z,9.6
2022-11-15T06:35:46.750Z,9.5
2022-11-15T06:37:02.977Z,9.2
2022-11-15T06:38:19.224Z,9.4
2022-11-15T06:39:34.488Z,9.6
2022-11-15T06:40:50.720Z,9.8
2022-11-15T06:42:06.974Z,9.2
2022-11-15T06:43:23.202Z,9.7
2022-11-15T06:44:39.451Z,9.4
2022-11-15T06:45:55.697Z,9.2
2022-11-15T06:47:11.933Z,9.5
2022-11-15T06:48:28.160Z,9.6
2022-11-15T06:49:44.413Z,9.5
2022-11-15T06:51:00.659Z,9.6
2022-11-15T06:52:16.892Z,9.1
2022-11-15T06:53:33.141Z,9
2022-11-15T06:54:49.000Z,9.2
2022-11-15T06:56:04.620Z,9.8
2022-11-15T06:57:20.873Z,9.9
2022-11-15T06:58:37.102Z,9.6
2022-11-15T06:59:53.353Z,9.3
2022-11-15T07:01:09.586Z,9.5
2022-11-15T07:02:25.826Z,9.7
2022-11-15T07:03:42.073Z,9
2022-11-15T07:04:58.314Z,9.2
2022-11-15T07:06:14.546Z,8.9
2022-11-15T07:07:30.784Z,8.8
2022-11-15T07:08:47.032Z,8.2
2022-11-15T07:10:03.276Z,8.6
2022-11-15T07:11:19.520Z,8.6
2022-11-15T07:12:34.780Z,8.4
2022-11-15T07:13:51.022Z,8.4
2022-11-15T07:15:07.250Z,8.3
2022-11-15T07:16:23.498Z,8
2022-11-15T07:17:39.736Z,8.1
2022-11-15T07:18:55.968Z,8.7
2022-11-15T07:20:12.222Z,8.3
2022-11-15T07:21:28.448Z,8.6
2022-11-15T07:22:44.708Z,8.2
2022-11-15T07:24:00.000Z,8.6
2022-11-15T07:25:17.171Z,9.1
2022-11-15T07:26:33.414Z,8.5
2022-11-15T07:27:49.667Z,8
2022-11-15T07:29:04.916Z,7.9
2022-11-15T07:30:21.158Z,7.3
2022-11-15T07:32:53.649Z,7.8
2022-11-15T07:34:09.885Z,6.8
2022-11-15T07:35:26.124Z,7.4
2022-11-15T07:36:42.370Z,6.9
2022-11-15T07:37:58.600Z,7.1
2022-11-15T07:40:31.080Z,7
2022-11-15T07:41:47.320Z,7.4
2022-11-15T07:43:03.556Z,7.1
2022-11-15T07:44:19.810Z,7.1
2022-11-15T07:45:35.059Z,6.9
2022-11-15T07:46:51.300Z,7.2
2022-11-15T07:48:07.543Z,6.9
2022-11-15T07:49:23.788Z,7.1
2022-11-15T07:50:40.031Z,7.5
2022-11-15T07:51:56.274Z,7.1
2022-11-15T07:53:12.510Z,7
2022-11-15T07:54:28.735Z,7.5
2022-11-15T07:55:44.987Z,7.1
2022-11-15T07:57:01.231Z,7.1
2022-11-15T07:58:17.467Z,7.5
2022-11-15T07:59:33.706Z,7.4
2022-11-15T08:00:49.949Z,7.5
2022-11-15T08:02:05.198Z,7.5
2022-11-15T08:03:21.452Z,7.1
2022-11-15T08:04:37.684Z,7.1
2022-11-15T08:05:53.925Z,7.3
2022-11-15T08:07:10.158Z,6.9
2022-11-15T08:08:26.408Z,6.7
2022-11-15T08:09:42.000Z,6.3
2022-11-15T08:10:58.897Z,6.6
2022-11-15T08:13:31.363Z,6.6
2022-11-15T08:14:47.602Z,6.8
2022-11-15T08:16:03.844Z,6.2
2022-11-15T08:17:20.093Z,6.4
2022-11-15T08:18:35.343Z,6.3
2022-11-15T08:19:51.580Z,6.6
2022-11-15T08:21:07.821Z,6.3
2022-11-15T08:22:24.073Z,6.2
2022-11-15T08:23:40.318Z,6
2022-11-15T08:24:56.544Z,6.3
2022-11-15T08:26:12.787Z,6.1
2022-11-15T08:27:29.026Z,6.2
2022-11-15T08:28:45.271Z,6
2022-11-15T08:30:01.502Z,6.1
2022-11-15T08:31:17.745Z,6.2
2022-11-15T08:32:33.984Z,5.8
2022-11-15T08:33:50.231Z,5.8
2022-11-15T08:35:05.489Z,5.7
2022-11-15T08:36:21.739Z,6
2022-11-15T08:38:54.222Z,6.2
2022-11-15T08:40:10.456Z,5.6
2022-11-15T08:42:42.939Z,5.5
2022-11-15T08:43:58.198Z,5.5
2022-11-15T08:45:14.439Z,5.3
2022-11-15T08:46:30.672Z,5.6
2022-11-15T08:47:46.909Z,5.4
2022-11-15T08:49:03.161Z,5.3
2022-11-15T08:50:19.395Z,5.8
2022-11-15T08:51:35.630Z,5.6
2022-11-15T08:52:51.880Z,5.6
2022-11-15T08:54:08.131Z,5.3
2022-11-15T08:55:24.363Z,5.5
2022-11-15T08:56:40.602Z,5.9
2022-11-15T08:57:56.832Z,5.9
2022-11-15T08:59:13.087Z,5.7
2022-11-15T09:00:28.333Z,6.2
2022-11-15T09:01:44.583Z,7.6
2022-11-15T09:03:00.813Z,7.1
2022-11-15T09:04:17.051Z,7.1
2022-11-15T09:05:33.291Z,6.3
2022-11-15T09:06:49.545Z,6.1
2022-11-15T09:08:05.773Z,6
2022-11-15T09:09:22.021Z,5.7
2022-11-15T09:10:38.258Z,5.7
2022-11-15T09:11:54.499Z,5.6
2022-11-15T09:13:10.741Z,5.8
2022-11-15T09:14:26.984Z,5.9
2022-11-15T09:15:43.223Z,5.5
2022-11-15T09:16:58.472Z,5.7
2022-11-15T09:18:14.730Z,6.2
2022-11-15T09:19:30.951Z,5.9
2022-11-15T09:20:47.213Z,5.6
2022-11-15T09:22:03.444Z,5.6
2022-11-15T09:23:19.678Z,5.8
2022-11-15T09:24:35.929Z,5.4
2022-11-15T09:25:52.174Z,5.3
2022-11-15T09:27:08.408Z,5.1
2022-11-15T09:28:24.651Z,5.1
2022-11-15T09:29:40.891Z,5
2022-11-15T09:30:57.133Z,5.1
2022-11-15T09:32:13.365Z,5.2
2022-11-15T09:33:28.631Z,5.4
2022-11-15T09:34:44.856Z,5.2
2022-11-15T09:36:01.098Z,5.4
2022-11-15T09:37:17.354Z,5.4
2022-11-15T09:38:33.575Z,5.3
2022-11-15T09:39:49.834Z,5.4
2022-11-15T09:41:06.075Z,5.1
2022-11-15T09:42:22.314Z,5.1
2022-11-15T09:43:38.543Z,5.5
2022-11-15T09:44:54.781Z,5.5
2022-11-15T09:46:11.037Z,5.4
2022-11-15T09:47:27.275Z,5.6
2022-11-15T09:48:43.505Z,5.3
2022-11-15T09:49:58.753Z,5.2
2022-11-15T09:51:15.002Z,5.3
2022-11-15T09:52:31.243Z,5.3
2022-11-15T09:53:47.474Z,5.3
2022-11-15T09:55:03.727Z,5.1
2022-11-15T09:56:19.966Z,5.1
2022-11-15T09:57:36.207Z,5.2
2022-11-15T09:58:52.443Z,5.2
2022-11-15T10:00:08.686Z,5
2022-11-15T10:01:24.931Z,5
2022-11-15T10:02:41.166Z,5
2022-11-15T10:03:57.404Z,5.1
2022-11-15T10:05:13.648Z,5.1
2022-11-15T10:06:28.914Z,4.9
2022-11-15T10:07:45.141Z,4.9
2022-11-15T10:09:01.385Z,5
2022-11-15T10:10:17.618Z,4.8
2022-11-15T10:11:33.865Z,4.9
2022-11-15T10:12:50.097Z,4.9
2022-11-15T10:14:06.345Z,4.7
2022-11-15T10:15:22.580Z,5
2022-11-15T10:16:38.828Z,4.6
2022-11-15T10:17:55.072Z,4.6
2022-11-15T10:19:11.309Z,5.2
2022-11-15T10:20:27.540Z,4.7
2022-11-15T10:21:43.800Z,4.6
2022-11-15T10:22:59.056Z,4.6
2022-11-15T10:24:15.291Z,5
2022-11-15T10:25:31.527Z,5
2022-11-15T10:26:47.765Z,4.6
2022-11-15T10:28:04.017Z,4.5
2022-11-15T10:29:20.248Z,4.7
2022-11-15T10:30:36.486Z,4.5
2022-11-15T10:31:52.719Z,4.2
2022-11-15T10:33:08.960Z,4.3
2022-11-15T10:34:25.200Z,4.6
2022-11-15T10:35:41.457Z,4.6
2022-11-15T10:36:57.699Z,4.5
2022-11-15T10:38:13.924Z,4.4
2022-11-15T10:39:30.179Z,4.6
2022-11-15T10:40:45.415Z,4.4
2022-11-15T10:42:01.675Z,4.3
2022-11-15T10:43:17.906Z,4.5
2022-11-15T10:44:34.148Z,4.1
2022-11-15T10:45:50.390Z,4.5
2022-11-15T10:47:06.625Z,4.1
2022-11-15T10:48:22.871Z,4.1
2022-11-15T10:49:39.114Z,4.5
2022-11-15T10:50:55.351Z,4.5
2022-11-15T10:52:11.583Z,4.4
2022-11-15T10:53:27.826Z,4.5
2022-11-15T10:54:44.055Z,4.6
2022-11-15T10:56:00.303Z,4.7
2022-11-15T10:57:15.563Z,4.5
2022-11-15T10:58:31.810Z,4.6
2022-11-15T10:59:48.033Z,4.3
2022-11-15T11:01:04.285Z,4.2
2022-11-15T11:02:20.517Z,4.6
2022-11-15T11:03:36.768Z,4.8
2022-11-15T11:06:09.237Z,4.3
2022-11-15T11:07:25.483Z,4.2
2022-11-15T11:08:41.724Z,4.3
2022-11-15T11:09:57.967Z,4.3
2022-11-15T11:11:14.205Z,4.4
2022-11-15T11:12:30.451Z,4.6
2022-11-15T11:13:45.701Z,4.5
2022-11-15T11:15:01.945Z,4.8
2022-11-15T11:16:18.180Z,4.4
2022-11-15T11:17:34.426Z,4.8
2022-11-15T11:18:50.659Z,4.3
2022-11-15T11:20:06.893Z,4.5
2022-11-15T11:21:23.146Z,4.6
2022-11-15T11:22:39.385Z,4.6
2022-11-15T11:23:55.620Z,4.4
2022-11-15T11:25:11.852Z,4.3
2022-11-15T11:26:28.111Z,4
2022-11-15T11:27:44.341Z,4.1
2022-11-15T11:29:00.573Z,4.1
2022-11-15T11:30:15.832Z,4.3
2022-11-15T11:31:32.086Z,4.2
2022-11-15T11:32:48.315Z,4.2
2022-11-15T11:34:04.559Z,4.1
2022-11-15T11:35:20.804Z,4
2022-11-15T11:36:37.039Z,4.2
2022-11-15T11:37:53.286Z,4.3
2022-11-15T11:39:09.526Z,4.2
2022-11-15T11:40:25.758Z,3.9
2022-11-15T11:41:42.003Z,4.2
2022-11-15T11:42:58.234Z,3.8
2022-11-15T11:44:14.476Z,4
2022-11-15T11:45:30.724Z,4
2022-11-15T11:46:45.977Z,3.9
2022-11-15T11:48:02.214Z,4
2022-11-15T11:49:18.467Z,3.9
2022-11-15T11:50:34.710Z,4
2022-11-15T11:51:50.945Z,4.1
2022-11-15T11:54:23.428Z,4.1
2022-11-15T11:55:39.658Z,4
2022-11-15T11:56:55.901Z,4.1
2022-11-15T11:59:28.384Z,4.2
2022-11-15T12:00:44.624Z,4.1
2022-11-15T12:02:00.864Z,4.1
2022-11-15T12:03:16.124Z,4.1
2022-11-15T12:04:32.361Z,4.1
2022-11-15T12:05:48.587Z,4
2022-11-15T12:07:04.841Z,4.1
2022-11-15T12:08:21.076Z,4.4
2022-11-15T12:09:37.324Z,4.1
2022-11-15T12:10:53.565Z,4.2
2022-11-15T12:12:09.787Z,4.2
2022-11-15T12:13:26.035Z,4.4
2022-11-15T12:14:42.280Z,4.3
2022-11-15T12:15:58.522Z,4
2022-11-15T12:17:14.754Z,3.8
2022-11-15T12:18:31.004Z,4.1
2022-11-15T12:19:46.259Z,4
2022-11-15T12:21:02.487Z,4.1
2022-11-15T12:22:18.725Z,4.2
2022-11-15T12:23:34.972Z,4
2022-11-15T12:24:51.217Z,3.9
2022-11-15T12:26:07.445Z,3.6
2022-11-15T12:27:23.694Z,3.9
2022-11-15T12:28:39.929Z,3.9
2022-11-15T12:29:56.175Z,4
2022-11-15T12:31:12.415Z,4
2022-11-15T12:32:28.640Z,4
2022-11-15T12:33:44.879Z,3.9
2022-11-15T12:35:01.141Z,3.9
2022-11-15T12:36:16.392Z,3.9
2022-11-15T12:37:32.627Z,3.8
2022-11-15T12:38:48.868Z,4.2
2022-11-15T12:40:05.105Z,3.8
2022-11-15T12:41:21.338Z,4
2022-11-15T12:42:37.588Z,4
2022-11-15T12:43:53.818Z,3.8
2022-11-15T12:45:10.062Z,3.8
2022-11-15T12:46:26.295Z,3.7
2022-11-15T12:47:42.540Z,3.8
2022-11-15T12:48:58.777Z,4.1
2022-11-15T12:50:15.037Z,3.9
2022-11-15T12:51:31.268Z,3.6
2022-11-15T12:52:46.524Z,3.9
2022-11-15T12:54:02.766Z,3.9
2022-11-15T12:55:18.992Z,3.9
2022-11-15T12:56:35.251Z,3.9
2022-11-15T12:57:51.481Z,3.8
2022-11-15T12:59:07.731Z,3.8
2022-11-15T13:00:22.977Z,3.8
2022-11-15T13:01:39.218Z,3.8
2022-11-15T13:02:55.466Z,4
2022-11-15T13:04:11.702Z,3.8
2022-11-15T13:05:27.945Z,3.9
2022-11-15T13:06:44.179Z,4
2022-11-15T13:08:00.422Z,4
2022-11-15T13:09:16.656Z,3.9
2022-11-15T13:10:32.902Z,3.9
2022-11-15T13:11:49.136Z,4
2022-11-15T13:13:05.386Z,4.1
2022-11-15T13:14:21.621Z,4.1
2022-11-15T13:15:37.870Z,3.9
2022-11-15T13:16:53.111Z,3.9
2022-11-15T13:18:09.354Z,4.2
2022-11-15T13:19:25.609Z,4.1
2022-11-15T13:20:41.849Z,3.9
2022-11-15T13:21:58.082Z,3.9
2022-11-15T13:23:14.314Z,3.6
2022-11-15T13:24:30.562Z,3.9
2022-11-15T13:25:46.795Z,3.8
2022-11-15T13:27:03.045Z,3.6
2022-11-15T13:28:19.281Z,4
2022-11-15T13:29:35.524Z,3.7
2022-11-15T13:30:51.759Z,3.7
2022-11-15T13:32:07.996Z,4.1
2022-11-15T13:33:23.255Z,4.1
2022-11-15T13:34:39.487Z,4
2022-11-15T13:35:55.745Z,4
2022-11-15T13:38:28.221Z,4.1
2022-11-15T13:39:44.451Z,3.7
2022-11-15T13:41:00.701Z,4
2022-11-15T13:42:16.934Z,3.7
2022-11-15T13:43:33.179Z,3.7
2022-11-15T13:46:05.655Z,3.6
2022-11-15T13:47:21.890Z,4
2022-11-15T13:48:38.128Z,3.9
2022-11-15T13:49:53.393Z,3.9
2022-11-15T13:51:09.620Z,3.8
2022-11-15T13:52:25.876Z,3.7
2022-11-15T13:53:42.116Z,3.8
2022-11-15T13:54:58.356Z,3.8
2022-11-15T13:56:14.591Z,3.8
2022-11-15T13:57:30.826Z,3.8
2022-11-15T13:58:47.058Z,3.8
2022-11-15T14:00:03.306Z,4
2022-11-15T14:01:19.543Z,4
2022-11-15T14:02:35.779Z,3.9
2022-11-15T14:03:52.024Z,3.7
2022-11-15T14:05:08.257Z,3.9
2022-11-15T14:06:23.529Z,3.8
2022-11-15T14:08:56.008Z,3.8
2022-11-15T14:10:12.250Z,4
2022-11-15T14:11:28.476Z,3.8
2022-11-15T14:12:44.722Z,3.8
2022-11-15T14:14:00.967Z,3.6
2022-11-15T14:16:33.448Z,3.8
2022-11-15T14:17:49.673Z,3.8
2022-11-15T14:19:05.919Z,3.5
2022-11-15T14:20:22.165Z,4
2022-11-15T14:21:38.409Z,3.8
2022-11-15T14:22:53.649Z,3.8
2022-11-15T14:24:09.891Z,3.5
2022-11-15T14:25:26.136Z,3.9
2022-11-15T14:26:42.384Z,3.8
2022-11-15T14:27:58.607Z,3.6
2022-11-15T14:29:14.847Z,3.9
2022-11-15T14:30:31.103Z,3.7
2022-11-15T14:31:47.341Z,3.5
2022-11-15T14:33:03.584Z,3.5
2022-11-15T14:34:19.807Z,3.3
2022-11-15T14:35:36.059Z,3.4
2022-11-15T14:36:52.294Z,3.8
2022-11-15T14:38:08.524Z,3.3
2022-11-15T14:39:23.783Z,3.5
2022-11-15T14:40:40.027Z,3.4
2022-11-15T14:41:56.280Z,3.4
2022-11-15T14:43:12.515Z,3.5
2022-11-15T14:44:28.744Z,4
2022-11-15T14:45:44.983Z,3.7
2022-11-15T14:47:01.228Z,3.7
2022-11-15T14:48:17.470Z,3.7
2022-11-15T14:49:33.718Z,3.4
2022-11-15T14:50:49.959Z,3.6
2022-11-15T14:52:06.182Z,3.4
2022-11-15T14:54:38.680Z,3.7
2022-11-15T14:55:53.928Z,3.6
2022-11-15T14:57:10.160Z,3.6
2022-11-15T14:58:26.412Z,3.6
2022-11-15T14:59:42.639Z,3.8
2022-11-15T15:00:58.881Z,4
2022-11-15T15:02:15.123Z,3.9
2022-11-15T15:03:31.364Z,4.3
2022-11-15T15:04:47.611Z,3.8
2022-11-15T15:06:03.854Z,3.9
2022-11-15T15:07:20.085Z,4.4
2022-11-15T15:08:36.336Z,4.1
2022-11-15T15:09:52.570Z,4.2
2022-11-15T15:11:08.804Z,3.8
2022-11-15T15:12:24.064Z,4
2022-11-15T15:13:40.311Z,3.6
2022-11-15T15:14:56.553Z,4.8
2022-11-15T15:16:12.787Z,3.6
2022-11-15T15:17:29.020Z,3.9
2022-11-15T15:18:45.265Z,4.5
2022-11-15T15:20:01.516Z,4.6
2022-11-15T15:21:17.749Z,5.1
2022-11-15T15:22:33.987Z,5.1
2022-11-15T15:25:06.466Z,4.7
2022-11-15T15:26:22.710Z,4.5
2022-11-15T15:27:38.949Z,5.2
2022-11-15T15:28:55.182Z,7.4
2022-11-15T15:30:10.431Z,5
2022-11-15T15:32:42.921Z,5.1
2022-11-15T15:33:59.163Z,5.4
2022-11-15T15:35:15.401Z,6
2022-11-15T15:36:31.636Z,6.1
2022-11-15T15:37:47.884Z,6.5
2022-11-15T15:39:04.130Z,15.6
2022-11-15T15:40:20.356Z,10.9
2022-11-15T15:41:36.596Z,8.8
2022-11-15T15:42:52.838Z,7.7
2022-11-15T15:44:09.086Z,8.5
2022-11-15T15:45:25.316Z,13
2022-11-15T15:47:56.807Z,30.9
2022-11-15T15:49:12.066Z,10.3
2022-11-15T15:50:27.339Z,11.3
2022-11-15T15:51:43.582Z,11.7
2022-11-15T15:52:59.788Z,12.6
2022-11-15T15:55:32.260Z,12.8
2022-11-15T15:56:48.505Z,12.3
2022-11-15T15:58:04.798Z,13.5
2022-11-15T15:59:21.098Z,13.8
2022-11-15T16:00:37.401Z,12.9
2022-11-15T16:01:53.677Z,14
2022-11-15T16:03:09.972Z,14.8
2022-11-15T16:04:26.270Z,14.1
2022-11-15T16:05:42.568Z,15.7
2022-11-15T16:06:57.872Z,14.8
2022-11-15T16:08:14.171Z,15.8
2022-11-15T16:09:30.476Z,15.9
2022-11-15T16:12:03.053Z,16.8
2022-11-15T16:13:18.369Z,17.4
2022-11-15T16:14:33.681Z,17.7
2022-11-15T16:15:49.979Z,17.7
2022-11-15T16:17:06.274Z,17.1
2022-11-15T16:18:22.565Z,17.4
2022-11-15T16:19:38.851Z,18
2022-11-15T16:20:55.159Z,17.4
2022-11-15T16:22:11.447Z,18.4
2022-11-15T16:23:27.749Z,18.3
2022-11-15T16:24:44.048Z,18.5
2022-11-15T16:26:00.333Z,18.7
2022-11-15T16:27:15.656Z,18.4
2022-11-15T16:28:30.965Z,18.7
2022-11-15T16:29:47.246Z,18.7
2022-11-15T16:31:03.555Z,19.5
2022-11-15T16:32:19.835Z,19.3
2022-11-15T16:33:36.127Z,19.7
2022-11-15T16:34:52.428Z,19.5
2022-11-15T16:36:08.725Z,19.8
2022-11-15T16:37:25.023Z,19.7
2022-11-15T16:38:41.314Z,19.7
2022-11-15T16:39:57.613Z,19.8
2022-11-15T16:41:12.935Z,19.4
2022-11-15T16:42:28.241Z,20
2022-11-15T16:43:44.520Z,19.7
2022-11-15T16:45:00.829Z,19.7
2022-11-15T16:46:17.120Z,20.5
2022-11-15T16:47:33.422Z,20.3
2022-11-15T16:48:49.713Z,20
2022-11-15T16:50:06.012Z,19.8
2022-11-15T16:51:22.306Z,19.9
2022-11-15T16:52:38.586Z,20.1
2022-11-15T16:53:54.885Z,19.6
2022-11-15T16:55:11.185Z,21.2
2022-11-15T16:56:27.479Z,20.9
2022-11-15T16:57:43.758Z,20.2
2022-11-15T16:58:59.082Z,21.5
2022-11-15T17:00:15.364Z,20.4
2022-11-15T17:01:31.667Z,21.4
2022-11-15T17:02:47.965Z,21.2
2022-11-15T17:04:04.263Z,19.8
2022-11-15T17:05:20.547Z,20.2
2022-11-15T17:06:36.847Z,19.9
2022-11-15T17:07:53.152Z,19.3
2022-11-15T17:09:09.444Z,19.9
2022-11-15T17:10:25.734Z,19.8
2022-11-15T17:11:42.031Z,19.2
2022-11-15T17:12:58.323Z,19.2
2022-11-15T17:14:14.611Z,19.1
2022-11-15T17:15:29.921Z,19.6
2022-11-15T17:16:46.217Z,19.1
2022-11-15T17:18:02.508Z,18.9
2022-11-15T17:19:18.806Z,19.4
2022-11-15T17:20:35.113Z,19.2
2022-11-15T17:21:51.392Z,19.5
2022-11-15T17:23:07.690Z,19.3
2022-11-15T17:24:23.985Z,18.9
2022-11-15T17:25:40.285Z,19.1
2022-11-15T17:26:56.589Z,19.1
2022-11-15T17:28:12.874Z,19.6
2022-11-15T17:29:29.165Z,19.9
2022-11-15T17:30:45.454Z,19.4
2022-11-15T17:32:00.783Z,19.6
2022-11-15T17:33:17.058Z,20.2
2022-11-15T17:34:33.372Z,19.3
2022-11-15T17:35:49.656Z,20.1
2022-11-15T17:37:05.956Z,19.7
2022-11-15T17:38:22.253Z,20.7
2022-11-15T17:39:38.532Z,20.1
2022-11-15T17:40:54.824Z,20.5
2022-11-15T17:42:11.133Z,20.3
2022-11-15T17:43:27.425Z,21.1
2022-11-15T17:44:43.725Z,20.7
2022-11-15T17:47:16.309Z,21.2
2022-11-15T17:48:31.612Z,21.8
2022-11-15T17:49:47.905Z,21.2
2022-11-15T17:51:04.198Z,21.9
2022-11-15T17:52:20.510Z,21.2
2022-11-15T17:53:36.805Z,21.6
2022-11-15T17:54:53.091Z,22
2022-11-15T17:56:09.388Z,21.8
2022-11-15T17:57:25.688Z,22
2022-11-15T17:58:41.970Z,21.8
2022-11-15T17:59:58.278Z,21.8
2022-11-15T18:01:14.558Z,22
2022-11-15T18:02:30.862Z,21.3
2022-11-15T18:05:03.455Z,21.7
2022-11-15T18:06:18.748Z,22.3
2022-11-15T18:07:35.057Z,23.4